San Bruno, CA

2:46 PM PDT on October 20, 2014 (GMT -0700)
San Bruno - Hungtinton Park | Change Station
CLOSE
Current Station
Personal Weather Station
Location: San Bruno, CA
Elevation: 52 ft
Nearby Weather Stations

Elev 52 ft 37.62 °N, 122.41 °W | Updated 12 minutes ago

Overcast
Overcast
68.0 °F
Feels Like 68.0 °F
N
6.3
Wind Variable Wind from WSW

Today
High -- | Low -- °F
--% Chance of Precip.
Yesterday
High -- | Low -- °F
Precip. -- in
7:22 AM 6:25 PM
Waning Crescent, 9% visible
Pressure 29.98 in
Visibility 10.0 miles
Clouds Few 1000 ft
Overcast 4800 ft
Dew Point 59 °F
Humidity 74%
Rainfall 0.00 in
Snow Depth Not available.
UV 2 out of 12
Pollen 1.80 out of 12
PM2.5 Good
Flu Activity Sporadic
METAR KSFO 202056Z 29009KT 10SM FEW010 OVC048 22/13 A2997 RMK AO2 SLP150 60000 T02170133 58003

More Conditions Fewer Conditions

Pressure 29.98 in
Visibility 10.0 miles
Clouds Few 1000 ft
Overcast 4800 ft
Dew Point 59 °F
Humidity 74%
Rainfall 0.00 in
Snow Depth Not available.
UV 2 out of 12
Pollen 1.80 out of 12
PM2.5 Good
Flu Activity Sporadic
METAR KSFO 202056Z 29009KT 10SM FEW010 OVC048 22/13 A2997 RMK AO2 SLP150 60000 T02170133 58003

More Conditions Fewer Conditions

10-Day Weather Forecast

Almanac

Astronomy

Oct. 20, 2014 Rise Set
Actual Time 7:22 AM PDT 6:25 PM PDT
Civil Twilight 6:56 AM PDT 6:51 PM PDT
Nautical Twilight 6:25 AM PDT 7:22 PM PDT
Astronomical Twilight 5:55 AM PDT 7:52 PM PDT
Moon 4:19 AM PDT 4:48 PM PDT
Length of Visible Light 11h 55m
Length of Day
11h 02m
Waning Crescent, 9% of the Moon is Illuminated
Today
Waning Crescent
Oct 23
New
Oct 30
First Quarter
Nov 6
Full
Nov 14
Last Quarter

Today's Extremes

State Highs State Lows

Community

WunderPhotos

Upload Photos

1,763,527 photos uploaded!

WunderBlogs® & News

Nearby

Air Quality

  Air Quality AQ Index Pollutant
Yesterday Good
OZONE
Yesterday Good
PM2.5
Current Good
PM2.5
Monday Good
PM2.5
Tuesday Good
OZONE
Wednesday Good
PM2.5
Thursday Good
PM2.5
Friday Good
PM2.5
Saturday Good
PM2.5

Snow Depth

Station Depth Elevation
Blue Lakes 0 in 8000 ft
Rubicon #2 0 in 7500 ft
Ward Creek #3 0 in 6750 ft
Hagan's Meadow 0 in 8000 ft
Sonora Pass 0 in 8800 ft

Earthquake Activity

City Distance Mag. Time & Date
East Foothills, California 41 miles 2.6 8:16 AM PDT
2014-10-18
Minimum magnitude displayed is 2.5.

Coastal Water Temperatures

Place Temperature
No Stations Reporting

Nearby Weather Stations